Terminal Aerodrome Forecast
Issued by NWS Grand Forks, ND

Home | Current Version | Previous Version | Text Only | Print | Product List | Glossary Off
Versions: 1 2 3 4 5 6 7 8 9 10 11 12

762
FTUS43 KFGF 250540
TAFFAR
TAF
KFAR 250540Z 2506/2606 33009KT P6SM SKC
     FM251200 27006KT P6SM SCT050
     FM251700 28008KT P6SM BKN040
     FM260200 32006KT P6SM BKN040=

USA.gov is the U.S. government's official web portal to all federal, state and local government web resources and services.